Warning: Invalid argument supplied for foreach() in /server/czul.ca/includes/prompts.inc.php on line 9

Warning: Invalid argument supplied for foreach() in /server/czul.ca/includes/prompts.inc.php on line 9

Warning: Invalid argument supplied for foreach() in /server/czul.ca/includes/prompts.inc.php on line 9
CZUL - FIR virtuelle de Montréal

KMYR

Myrtle Beach International Airport

{{ICAO_CODE}} KMYR
{{IATA_CODE}} MYR
{{NAME}} Myrtle Beach International Airport
{{LOCATION}} Myrtle Beach, South-Carolina, US
{{ELEVATION}} 25 {{FEET}} / 7.6 {{METERS}}
{{LATITUDE}} 33.67969894
{{LONGITUDE}} -78.92829895
{{METAR}} KMYR 232356Z 32003KT 10SM CLR 22/16 A2995 RMK AO2 SLP143 T02170161 10272 20217 51026
{{EXTRA_INFO}} {{DISPLAY_CHARTS_AND_CFS}}
{{DISPLAY_NOTAMS}}
{{RUNWAY}} {{LENGTH}} {{WIDTH}} {{SURFACE}} {{ELEVATION}}
18 9503 ft 150 ft ASP 22 ft
36 9503 ft 150 ft ASP 21 ft